^^
Station Historical Data
Daily Summary for January 11, 2019 Units:  English    Metric   Both
« Previous Day
Next Day »
Daily Weekly Monthly Yearly Custom
  High: Low: Average:
Temperature: 20.1 °F 10.2 °F 14.4 °F
Dew Point: 16.7 °F 7.1 °F 10.5 °F
Humidity: 90% 73% 84%
Wind Speed: 14.0mph 0.0mph 5.7mph
Wind Gust: 15.0mph - -
Wind- - SSW
Pressure: 30.40 in 30.07 in -
Precipitation: 0.00 in    
Historical Graphs
 
 
Tabular Data for January 11, 2019
Time Temperature Dew Point Pressure Wind Wind Speed Wind Gust Humidity Rainfall Rate (Hourly) solar Conditions
00:04 19.4 °F 15.6 °F 30.07 in Calm     85% 0.00 in 0.00 W/m2
00:09 19.5 °F 15.7 °F 30.08 in Calm     85% 0.00 in 0.00 W/m2
00:14 19.7 °F 15.9 °F 30.08 in Calm     85% 0.00 in 0.00 W/m2
00:19 19.8 °F 16.3 °F 30.08 in Calm     86% 0.00 in 0.00 W/m2
00:24 20.1 °F 16.3 °F 30.08 in ESE 1.0 mph 2.0 mph 85% 0.00 in 0.00 W/m2
00:29 20.0 °F 16.2 °F 30.07 in ESE 2.0 mph 3.0 mph 85% 0.00 in 0.00 W/m2
00:34 19.6 °F 15.6 °F 30.08 in ESE 3.0 mph 3.0 mph 84% 0.00 in 0.00 W/m2
00:39 19.0 °F 15.0 °F 30.08 in ESE 3.0 mph 3.0 mph 84% 0.00 in 0.00 W/m2
00:44 18.9 °F 15.1 °F 30.08 in ESE 1.0 mph 3.0 mph 85% 0.00 in 0.00 W/m2
00:49 19.4 °F 15.9 °F 30.08 in ESE 1.0 mph 3.0 mph 86% 0.00 in 0.00 W/m2
00:54 19.7 °F 15.9 °F 30.08 in Calm   2.0 mph 85% 0.00 in 0.00 W/m2
00:59 19.3 °F 15.3 °F 30.08 in Calm   2.0 mph 84% 0.00 in 0.00 W/m2
01:04 18.7 °F 14.7 °F 30.09 in Calm     84% 0.00 in 0.00 W/m2
01:09 18.2 °F 14.2 °F 30.09 in Calm     84% 0.00 in 0.00 W/m2
01:14 18.2 °F 14.7 °F 30.09 in Calm     86% 0.00 in 0.00 W/m2
01:19 19.0 °F 15.8 °F 30.09 in Calm   1.0 mph 87% 0.00 in 0.00 W/m2
01:24 19.6 °F 16.4 °F 30.09 in Calm   1.0 mph 87% 0.00 in 0.00 W/m2
01:29 19.8 °F 16.6 °F 30.09 in Calm     87% 0.00 in 0.00 W/m2
01:34 19.9 °F 16.7 °F 30.09 in Calm     87% 0.00 in 0.00 W/m2
01:39 19.9 °F 16.4 °F 30.09 in Calm     86% 0.00 in 0.00 W/m2
01:44 19.8 °F 16.3 °F 30.09 in ESE 1.0 mph 2.0 mph 86% 0.00 in 0.00 W/m2
01:49 19.7 °F 16.2 °F 30.09 in ESE 4.0 mph 4.0 mph 86% 0.00 in 0.00 W/m2
01:54 19.4 °F 15.9 °F 30.09 in ESE 2.0 mph 4.0 mph 86% 0.00 in 0.00 W/m2
01:59 19.2 °F 15.7 °F 30.10 in ESE 1.0 mph 4.0 mph 86% 0.00 in 0.00 W/m2
02:04 18.7 °F 14.9 °F 30.10 in Calm   3.0 mph 85% 0.00 in 0.00 W/m2
02:09 18.4 °F 14.6 °F 30.10 in Calm   1.0 mph 85% 0.00 in 0.00 W/m2
02:14 18.2 °F 14.7 °F 30.10 in Calm     86% 0.00 in 0.00 W/m2
02:19 18.1 °F 14.6 °F 30.10 in Calm     86% 0.00 in 0.00 W/m2
02:24 18.2 °F 15.0 °F 30.10 in ESE 3.0 mph 3.0 mph 87% 0.00 in 0.00 W/m2
02:29 18.2 °F 15.0 °F 30.11 in North 4.0 mph 5.0 mph 87% 0.00 in 0.00 W/m2
02:34 18.2 °F 15.0 °F 30.11 in North 1.0 mph 5.0 mph 87% 0.00 in 0.00 W/m2
02:39 18.2 °F 15.0 °F 30.11 in North 2.0 mph 4.0 mph 87% 0.00 in 0.00 W/m2
02:44 18.1 °F 14.9 °F 30.11 in North 2.0 mph 3.0 mph 87% 0.00 in 0.00 W/m2
02:49 18.0 °F 14.8 °F 30.11 in North 3.0 mph 3.0 mph 87% 0.00 in 0.00 W/m2
02:54 18.0 °F 14.8 °F 30.11 in North 3.0 mph 3.0 mph 87% 0.00 in 0.00 W/m2
02:59 18.2 °F 15.2 °F 30.11 in North 3.0 mph 4.0 mph 88% 0.00 in 0.00 W/m2
03:04 18.3 °F 15.3 °F 30.11 in North 2.0 mph 4.0 mph 88% 0.00 in 0.00 W/m2
03:09 18.4 °F 15.2 °F 30.11 in North 3.0 mph 4.0 mph 87% 0.00 in 0.00 W/m2
03:14 18.5 °F 15.3 °F 30.11 in North 2.0 mph 4.0 mph 87% 0.00 in 0.00 W/m2
03:19 18.5 °F 15.3 °F 30.11 in North 3.0 mph 4.0 mph 87% 0.00 in 0.00 W/m2
03:24 18.5 °F 15.3 °F 30.11 in North 2.0 mph 4.0 mph 87% 0.00 in 0.00 W/m2
03:29 18.5 °F 15.3 °F 30.11 in North 2.0 mph 4.0 mph 87% 0.00 in 0.00 W/m2
03:34 18.5 °F 15.3 °F 30.11 in North 2.0 mph 3.0 mph 87% 0.00 in 0.00 W/m2
03:39 18.5 °F 15.3 °F 30.11 in North 2.0 mph 3.0 mph 87% 0.00 in 0.00 W/m2
03:44 18.4 °F 15.2 °F 30.11 in North 4.0 mph 4.0 mph 87% 0.00 in 0.00 W/m2
03:49 17.9 °F 14.7 °F 30.11 in North 4.0 mph 5.0 mph 87% 0.00 in 0.00 W/m2
03:54 17.5 °F 14.3 °F 30.11 in North 1.0 mph 5.0 mph 87% 0.00 in 0.00 W/m2
03:59 17.3 °F 14.1 °F 30.11 in North 2.0 mph 5.0 mph 87% 0.00 in 0.00 W/m2
04:04 17.3 °F 14.1 °F 30.11 in North 3.0 mph 4.0 mph 87% 0.00 in 0.00 W/m2
04:09 17.2 °F 14.0 °F 30.11 in North 3.0 mph 4.0 mph 87% 0.00 in 0.00 W/m2
04:14 17.0 °F 13.8 °F 30.11 in North 1.0 mph 4.0 mph 87% 0.00 in 0.00 W/m2
04:19 17.0 °F 14.1 °F 30.11 in North 2.0 mph 3.0 mph 88% 0.00 in 0.00 W/m2
04:24 17.4 °F 14.5 °F 30.11 in North 3.0 mph 4.0 mph 88% 0.00 in 0.00 W/m2
04:29 17.7 °F 15.0 °F 30.11 in North 3.0 mph 5.0 mph 89% 0.00 in 0.00 W/m2
04:34 17.7 °F 14.8 °F 30.11 in North 5.0 mph 6.0 mph 88% 0.00 in 0.00 W/m2
04:39 18.0 °F 15.3 °F 30.11 in North 3.0 mph 6.0 mph 89% 0.00 in 0.00 W/m2
04:44 17.9 °F 14.9 °F 30.11 in North 3.0 mph 6.0 mph 88% 0.00 in 0.00 W/m2
04:49 17.6 °F 14.7 °F 30.12 in North 2.0 mph 5.0 mph 88% 0.00 in 0.00 W/m2
04:54 17.2 °F 14.3 °F 30.11 in North 2.0 mph 5.0 mph 88% 0.00 in 0.00 W/m2
04:59 17.0 °F 14.1 °F 30.12 in North 3.0 mph 3.0 mph 88% 0.00 in 0.00 W/m2
05:04 16.5 °F 13.3 °F 30.12 in North 3.0 mph 4.0 mph 87% 0.00 in 0.00 W/m2
05:09 16.0 °F 13.1 °F 30.12 in NW 6.0 mph 7.0 mph 88% 0.00 in 0.00 W/m2
05:14 15.3 °F 12.1 °F 30.13 in NNW 6.0 mph 8.0 mph 87% 0.00 in 0.00 W/m2
05:19 14.4 °F 11.2 °F 30.13 in NNW 6.0 mph 8.0 mph 87% 0.00 in 0.00 W/m2
05:24 13.8 °F 10.6 °F 30.13 in NNW 4.0 mph 8.0 mph 87% 0.00 in 0.00 W/m2
05:29 13.5 °F 10.6 °F 30.13 in NNW 4.0 mph 7.0 mph 88% 0.00 in 0.00 W/m2
05:34 13.5 °F 10.9 °F 30.12 in North 4.0 mph 6.0 mph 89% 0.00 in 0.00 W/m2
05:39 13.7 °F 11.1 °F 30.12 in NNE 6.0 mph 6.0 mph 89% 0.00 in 0.00 W/m2
05:44 14.3 °F 11.9 °F 30.12 in NNE 3.0 mph 8.0 mph 90% 0.00 in 0.00 W/m2
05:49 14.8 °F 12.4 °F 30.12 in NNE 5.0 mph 8.0 mph 90% 0.00 in 0.00 W/m2
05:54 15.0 °F 12.6 °F 30.13 in North 5.0 mph 6.0 mph 90% 0.00 in 0.00 W/m2
05:59 15.1 °F 12.7 °F 30.12 in North 7.0 mph 7.0 mph 90% 0.00 in 0.00 W/m2
06:04 15.2 °F 12.8 °F 30.12 in North 7.0 mph 8.0 mph 90% 0.00 in 0.00 W/m2
06:09 15.2 °F 12.8 °F 30.13 in North 4.0 mph 9.0 mph 90% 0.00 in 0.00 W/m2
06:14 15.2 °F 12.8 °F 30.13 in North 5.0 mph 9.0 mph 90% 0.00 in 0.00 W/m2
06:19 15.1 °F 12.7 °F 30.13 in NNE 5.0 mph 10.0 mph 90% 0.00 in 0.00 W/m2
06:24 15.0 °F 12.6 °F 30.13 in North 5.0 mph 10.0 mph 90% 0.00 in 0.00 W/m2
06:29 14.9 °F 12.2 °F 30.13 in North 7.0 mph 9.0 mph 89% 0.00 in 0.00 W/m2
06:34 14.7 °F 12.0 °F 30.14 in North 9.0 mph 11.0 mph 89% 0.00 in 0.00 W/m2
06:39 14.6 °F 11.9 °F 30.14 in North 8.0 mph 11.0 mph 89% 0.00 in 0.00 W/m2
06:44 14.4 °F 11.8 °F 30.14 in North 9.0 mph 11.0 mph 89% 0.00 in 0.00 W/m2
06:49 14.1 °F 11.5 °F 30.14 in NNW 4.0 mph 11.0 mph 89% 0.00 in 0.00 W/m2
06:54 13.5 °F 10.6 °F 30.15 in NNW 8.0 mph 9.0 mph 88% 0.00 in 0.00 W/m2
06:59 13.1 °F 10.2 °F 30.15 in NNW 8.0 mph 10.0 mph 88% 0.00 in 0.00 W/m2
07:04 12.8 °F 9.9 °F 30.15 in NNW 7.0 mph 12.0 mph 88% 0.00 in 0.00 W/m2
07:09 12.7 °F 9.8 °F 30.15 in North 9.0 mph 12.0 mph 88% 0.00 in 0.00 W/m2
07:14 12.5 °F 9.9 °F 30.15 in North 10.0 mph 12.0 mph 89% 0.00 in 0.00 W/m2
07:19 12.5 °F 9.9 °F 30.15 in NNW 8.0 mph 12.0 mph 89% 0.00 in 0.00 W/m2
07:24 12.6 °F 10.0 °F 30.15 in NNW 7.0 mph 12.0 mph 89% 0.00 in 0.00 W/m2
07:29 12.5 °F 9.6 °F 30.15 in North 6.0 mph 11.0 mph 88% 0.00 in 0.00 W/m2
07:34 12.5 °F 9.9 °F 30.15 in North 8.0 mph 9.0 mph 89% 0.00 in 0.00 W/m2
07:39 12.4 °F 9.5 °F 30.15 in North 7.0 mph 9.0 mph 88% 0.00 in 0.00 W/m2
07:44 12.4 °F 9.8 °F 30.15 in North 6.0 mph 9.0 mph 89% 0.00 in 0.00 W/m2
07:49 12.3 °F 9.4 °F 30.16 in North 5.0 mph 8.0 mph 88% 0.00 in 0.00 W/m2
07:54 12.2 °F 9.3 °F 30.15 in North 1.0 mph 7.0 mph 88% 0.00 in 0.00 W/m2
07:59 12.1 °F 9.2 °F 30.15 in NE 2.0 mph 6.0 mph 88% 0.00 in 0.00 W/m2
08:04 12.1 °F 9.2 °F 30.15 in NNE 4.0 mph 5.0 mph 88% 0.00 in 0.00 W/m2
08:09 12.0 °F 9.1 °F 30.15 in NNE 2.0 mph 5.0 mph 88% 0.00 in 0.00 W/m2
08:14 11.9 °F 9.0 °F 30.16 in NE 1.0 mph 5.0 mph 88% 0.00 in 0.00 W/m2
08:19 11.8 °F 8.9 °F 30.16 in NE 3.0 mph 7.0 mph 88% 0.00 in 0.00 W/m2
08:24 11.6 °F 8.5 °F 30.17 in NNW 3.0 mph 7.0 mph 87% 0.00 in 5.00 W/m2
08:29 11.5 °F 8.4 °F 30.17 in North 5.0 mph 8.0 mph 87% 0.00 in 5.00 W/m2
08:34 11.4 °F 8.3 °F 30.18 in North 5.0 mph 9.0 mph 87% 0.00 in 9.00 W/m2
08:39 11.2 °F 8.1 °F 30.18 in North 5.0 mph 9.0 mph 87% 0.00 in 12.00 W/m2
08:44 11.1 °F 8.0 °F 30.18 in North 4.0 mph 7.0 mph 87% 0.00 in 18.00 W/m2
08:49 10.7 °F 7.3 °F 30.19 in NW 2.0 mph 6.0 mph 86% 0.00 in 19.00 W/m2
08:54 10.5 °F 7.4 °F 30.19 in NW 3.0 mph 5.0 mph 87% 0.00 in 25.00 W/m2
08:59 10.2 °F 7.1 °F 30.20 in NNW 7.0 mph 8.0 mph 87% 0.00 in 30.00 W/m2
09:04 10.3 °F 7.2 °F 30.20 in NNW 6.0 mph 8.0 mph 87% 0.00 in 33.00 W/m2
09:09 10.3 °F 7.2 °F 30.20 in North 6.0 mph 8.0 mph 87% 0.00 in 39.00 W/m2
09:14 10.3 °F 7.2 °F 30.20 in North 7.0 mph 8.0 mph 87% 0.00 in 46.00 W/m2
09:19 10.4 °F 7.3 °F 30.20 in NNW 8.0 mph 8.0 mph 87% 0.00 in 53.00 W/m2
09:24 10.7 °F 7.6 °F 30.20 in North 6.0 mph 8.0 mph 87% 0.00 in 81.00 W/m2
09:29 11.4 °F 8.5 °F 30.20 in North 10.0 mph 11.0 mph 88% 0.00 in 97.00 W/m2
09:34 11.8 °F 8.7 °F 30.21 in North 5.0 mph 11.0 mph 87% 0.00 in 105.00 W/m2
09:39 12.0 °F 8.6 °F 30.21 in North 5.0 mph 11.0 mph 86% 0.00 in 116.00 W/m2
09:44 12.4 °F 9.0 °F 30.21 in North 8.0 mph 11.0 mph 86% 0.00 in 134.00 W/m2
09:49 13.0 °F 9.6 °F 30.22 in NNW 7.0 mph 11.0 mph 86% 0.00 in 158.00 W/m2
09:54 13.4 °F 9.5 °F 30.22 in North 8.0 mph 11.0 mph 84% 0.00 in 186.00 W/m2
09:59 13.7 °F 9.8 °F 30.22 in NNE 4.0 mph 12.0 mph 84% 0.00 in 220.00 W/m2
10:04 14.4 °F 10.2 °F 30.23 in North 4.0 mph 12.0 mph 83% 0.00 in 253.00 W/m2
10:09 15.0 °F 10.5 °F 30.23 in North 8.0 mph 10.0 mph 82% 0.00 in 287.00 W/m2
10:14 15.3 °F 10.5 °F 30.23 in NNW 6.0 mph 10.0 mph 81% 0.00 in 329.00 W/m2
10:19 15.7 °F 10.6 °F 30.23 in NNE 7.0 mph 10.0 mph 80% 0.00 in 343.00 W/m2
10:24 16.2 °F 10.8 °F 30.23 in North 7.0 mph 10.0 mph 79% 0.00 in 341.00 W/m2
10:29 16.5 °F 10.8 °F 30.23 in North 7.0 mph 10.0 mph 78% 0.00 in 322.00 W/m2
10:34 16.8 °F 11.1 °F 30.23 in North 9.0 mph 11.0 mph 78% 0.00 in 316.00 W/m2
10:39 16.8 °F 10.8 °F 30.24 in North 3.0 mph 11.0 mph 77% 0.00 in 311.00 W/m2
10:44 16.9 °F 10.9 °F 30.23 in NNW 7.0 mph 10.0 mph 77% 0.00 in 315.00 W/m2
10:49 16.3 °F 10.1 °F 30.24 in North 4.0 mph 10.0 mph 76% 0.00 in 281.00 W/m2
10:54 15.5 °F 9.3 °F 30.24 in North 6.0 mph 9.0 mph 76% 0.00 in 155.00 W/m2
10:59 15.3 °F 9.7 °F 30.25 in North 7.0 mph 10.0 mph 78% 0.00 in 345.00 W/m2
11:04 16.0 °F 10.6 °F 30.25 in North 6.0 mph 10.0 mph 79% 0.00 in 436.00 W/m2
11:09 17.0 °F 11.6 °F 30.25 in North 7.0 mph 10.0 mph 79% 0.00 in 431.00 W/m2
11:14 17.5 °F 11.5 °F 30.25 in North 9.0 mph 10.0 mph 77% 0.00 in 468.00 W/m2
11:19 18.1 °F 11.8 °F 30.25 in NNE 10.0 mph 13.0 mph 76% 0.00 in 431.00 W/m2
11:24 18.2 °F 11.6 °F 30.24 in North 9.0 mph 14.0 mph 75% 0.00 in 299.00 W/m2
11:29 18.2 °F 11.6 °F 30.24 in NNE 11.0 mph 14.0 mph 75% 0.00 in 299.00 W/m2
11:34 17.8 °F 10.9 °F 30.25 in North 11.0 mph 13.0 mph 74% 0.00 in 178.00 W/m2
11:39 17.0 °F 10.1 °F 30.24 in NNE 10.0 mph 12.0 mph 74% 0.00 in 169.00 W/m2
11:44 16.2 °F 9.4 °F 30.24 in NNE 8.0 mph 12.0 mph 74% 0.00 in 171.00 W/m2
11:49 15.9 °F 9.7 °F 30.24 in NNE 5.0 mph 12.0 mph 76% 0.00 in 169.00 W/m2
11:54 15.6 °F 9.4 °F 30.24 in NNE 8.0 mph 10.0 mph 76% 0.00 in 162.00 W/m2
11:59 15.2 °F 9.0 °F 30.24 in NE 5.0 mph 10.0 mph 76% 0.00 in 155.00 W/m2
12:04 14.9 °F 8.7 °F 30.25 in North 7.0 mph 9.0 mph 76% 0.00 in 155.00 W/m2
12:09 14.6 °F 8.7 °F 30.25 in NNE 6.0 mph 10.0 mph 77% 0.00 in 179.00 W/m2
12:14 14.5 °F 8.6 °F 30.25 in NNE 8.0 mph 10.0 mph 77% 0.00 in 135.00 W/m2
12:19 14.2 °F 8.3 °F 30.25 in North 5.0 mph 9.0 mph 77% 0.00 in 253.00 W/m2
12:24 14.5 °F 8.9 °F 30.24 in NNW 6.0 mph 9.0 mph 78% 0.00 in 371.00 W/m2
12:29 15.1 °F 9.5 °F 30.24 in North 8.0 mph 9.0 mph 78% 0.00 in 387.00 W/m2
12:34 15.6 °F 9.7 °F 30.24 in North 4.0 mph 9.0 mph 77% 0.00 in 309.00 W/m2
12:39 15.7 °F 9.5 °F 30.25 in North 8.0 mph 9.0 mph 76% 0.00 in 316.00 W/m2
12:44 15.8 °F 9.6 °F 30.25 in NNE 8.0 mph 10.0 mph 76% 0.00 in 309.00 W/m2
12:49 15.5 °F 9.0 °F 30.25 in NNE 6.0 mph 10.0 mph 75% 0.00 in 158.00 W/m2
12:54 15.0 °F 8.5 °F 30.25 in NNE 8.0 mph 10.0 mph 75% 0.00 in 230.00 W/m2
12:59 15.0 °F 8.8 °F 30.25 in North 7.0 mph 10.0 mph 76% 0.00 in 320.00 W/m2
13:04 15.6 °F 9.7 °F 30.25 in NNE 8.0 mph 10.0 mph 77% 0.00 in 367.00 W/m2
13:09 16.0 °F 9.8 °F 30.25 in NNE 6.0 mph 10.0 mph 76% 0.00 in 274.00 W/m2
13:14 16.0 °F 9.5 °F 30.25 in NNE 5.0 mph 10.0 mph 75% 0.00 in 195.00 W/m2
13:19 15.9 °F 9.4 °F 30.26 in NNE 6.0 mph 10.0 mph 75% 0.00 in 292.00 W/m2
13:24 16.1 °F 9.6 °F 30.26 in NE 8.0 mph 8.0 mph 75% 0.00 in 213.00 W/m2
13:29 16.1 °F 9.3 °F 30.26 in NE 5.0 mph 9.0 mph 74% 0.00 in 341.00 W/m2
13:34 16.2 °F 9.4 °F 30.26 in North 5.0 mph 9.0 mph 74% 0.00 in 346.00 W/m2
13:39 16.5 °F 10.0 °F 30.26 in NNW 5.0 mph 8.0 mph 75% 0.00 in 341.00 W/m2
13:44 16.6 °F 9.8 °F 30.26 in NNW 6.0 mph 9.0 mph 74% 0.00 in 338.00 W/m2
13:49 16.2 °F 9.1 °F 30.26 in NNW 9.0 mph 11.0 mph 73% 0.00 in 334.00 W/m2
13:54 15.2 °F 8.1 °F 30.26 in North 9.0 mph 11.0 mph 73% 0.00 in 329.00 W/m2
13:59 14.7 °F 8.2 °F 30.26 in North 7.0 mph 12.0 mph 75% 0.00 in 323.00 W/m2
14:04 14.4 °F 8.2 °F 30.26 in NNW 8.0 mph 12.0 mph 76% 0.00 in 316.00 W/m2
14:09 14.5 °F 8.3 °F 30.26 in North 8.0 mph 12.0 mph 76% 0.00 in 315.00 W/m2
14:14 14.8 °F 8.9 °F 30.26 in NNW 10.0 mph 13.0 mph 77% 0.00 in 306.00 W/m2
14:19 15.0 °F 9.1 °F 30.27 in NNW 10.0 mph 13.0 mph 77% 0.00 in 301.00 W/m2
14:24 15.3 °F 9.4 °F 30.27 in North 9.0 mph 13.0 mph 77% 0.00 in 299.00 W/m2
14:29 15.5 °F 9.3 °F 30.27 in North 8.0 mph 15.0 mph 76% 0.00 in 288.00 W/m2
14:34 15.6 °F 9.4 °F 30.27 in NNW 12.0 mph 15.0 mph 76% 0.00 in 281.00 W/m2
14:39 15.4 °F 9.2 °F 30.27 in North 9.0 mph 14.0 mph 76% 0.00 in 272.00 W/m2
14:44 15.5 °F 9.3 °F 30.27 in North 10.0 mph 13.0 mph 76% 0.00 in 265.00 W/m2
14:49 15.0 °F 8.8 °F 30.27 in NNW 12.0 mph 13.0 mph 76% 0.00 in 258.00 W/m2
14:54 14.8 °F 8.9 °F 30.27 in NNW 12.0 mph 14.0 mph 77% 0.00 in 248.00 W/m2
14:59 14.9 °F 9.3 °F 30.27 in NNW 8.0 mph 14.0 mph 78% 0.00 in 236.00 W/m2
15:04 14.8 °F 8.9 °F 30.28 in NNW 9.0 mph 13.0 mph 77% 0.00 in 225.00 W/m2
15:09 15.1 °F 9.5 °F 30.28 in North 10.0 mph 13.0 mph 78% 0.00 in 213.00 W/m2
15:14 15.6 °F 10.0 °F 30.28 in North 7.0 mph 13.0 mph 78% 0.00 in 204.00 W/m2
15:19 15.9 °F 10.0 °F 30.28 in NNW 11.0 mph 12.0 mph 77% 0.00 in 193.00 W/m2
15:24 15.7 °F 9.8 °F 30.28 in NNW 8.0 mph 12.0 mph 77% 0.00 in 181.00 W/m2
15:29 15.9 °F 10.0 °F 30.28 in North 9.0 mph 14.0 mph 77% 0.00 in 169.00 W/m2
15:34 15.8 °F 9.9 °F 30.29 in NNW 8.0 mph 14.0 mph 77% 0.00 in 156.00 W/m2
15:39 16.0 °F 10.1 °F 30.29 in North 9.0 mph 13.0 mph 77% 0.00 in 144.00 W/m2
15:44 16.0 °F 10.1 °F 30.29 in NNE 8.0 mph 14.0 mph 77% 0.00 in 134.00 W/m2
15:49 15.8 °F 9.6 °F 30.29 in North 10.0 mph 14.0 mph 76% 0.00 in 123.00 W/m2
15:54 15.2 °F 9.3 °F 30.29 in NNW 9.0 mph 13.0 mph 77% 0.00 in 111.00 W/m2
15:59 15.0 °F 9.4 °F 30.30 in North 6.0 mph 13.0 mph 78% 0.00 in 100.00 W/m2
16:04 15.0 °F 9.4 °F 30.30 in NNW 7.0 mph 12.0 mph 78% 0.00 in 90.00 W/m2
16:09 14.5 °F 8.9 °F 30.30 in NNW 5.0 mph 12.0 mph 78% 0.00 in 77.00 W/m2
16:14 14.1 °F 8.8 °F 30.30 in NNW 5.0 mph 12.0 mph 79% 0.00 in 67.00 W/m2
16:19 13.9 °F 8.9 °F 30.31 in NNW 7.0 mph 12.0 mph 80% 0.00 in 63.00 W/m2
16:24 13.7 °F 8.4 °F 30.31 in NNW 9.0 mph 12.0 mph 79% 0.00 in 54.00 W/m2
16:29 13.6 °F 8.6 °F 30.31 in NNW 6.0 mph 12.0 mph 80% 0.00 in 44.00 W/m2
16:34 13.4 °F 8.4 °F 30.31 in NNW 9.0 mph 11.0 mph 80% 0.00 in 37.00 W/m2
16:39 13.3 °F 8.3 °F 30.31 in NNW 9.0 mph 11.0 mph 80% 0.00 in 32.00 W/m2
16:44 13.2 °F 8.5 °F 30.31 in NNW 9.0 mph 11.0 mph 81% 0.00 in 25.00 W/m2
16:49 12.9 °F 7.9 °F 30.31 in North 9.0 mph 11.0 mph 80% 0.00 in 21.00 W/m2
16:54 12.5 °F 7.8 °F 30.32 in NNW 9.0 mph 11.0 mph 81% 0.00 in 18.00 W/m2
16:59 12.1 °F 7.4 °F 30.32 in North 5.0 mph 11.0 mph 81% 0.00 in 19.00 W/m2
17:04 11.7 °F 7.3 °F 30.32 in NNW 8.0 mph 12.0 mph 82% 0.00 in 12.00 W/m2
17:09 11.5 °F 7.1 °F 30.32 in NW 9.0 mph 12.0 mph 82% 0.00 in 9.00 W/m2
17:14 11.3 °F 7.1 °F 30.32 in NNW 10.0 mph 11.0 mph 83% 0.00 in 5.00 W/m2
17:19 11.2 °F 7.3 °F 30.32 in North 10.0 mph 14.0 mph 84% 0.00 in 5.00 W/m2
17:24 11.2 °F 7.3 °F 30.32 in NNE 14.0 mph 14.0 mph 84% 0.00 in 0.00 W/m2
17:29 11.1 °F 7.2 °F 30.32 in North 11.0 mph 14.0 mph 84% 0.00 in 0.00 W/m2
17:34 11.1 °F 7.5 °F 30.33 in North 9.0 mph 14.0 mph 85% 0.00 in 0.00 W/m2
17:39 11.1 °F 7.5 °F 30.33 in North 9.0 mph 13.0 mph 85% 0.00 in 0.00 W/m2
17:44 11.1 °F 7.5 °F 30.33 in North 7.0 mph 12.0 mph 85% 0.00 in 0.00 W/m2
17:49 11.2 °F 7.6 °F 30.33 in NNE 10.0 mph 12.0 mph 85% 0.00 in 0.00 W/m2
17:54 11.2 °F 7.8 °F 30.34 in NNE 9.0 mph 12.0 mph 86% 0.00 in 0.00 W/m2
17:59 11.3 °F 7.9 °F 30.34 in NNE 6.0 mph 11.0 mph 86% 0.00 in 0.00 W/m2
18:04 11.3 °F 7.9 °F 30.34 in NNE 11.0 mph 12.0 mph 86% 0.00 in 0.00 W/m2
18:09 11.3 °F 7.9 °F 30.34 in NNE 11.0 mph 12.0 mph 86% 0.00 in 0.00 W/m2
18:14 11.3 °F 7.9 °F 30.34 in NNE 11.0 mph 12.0 mph 86% 0.00 in 0.00 W/m2
18:19 11.3 °F 7.9 °F 30.34 in NNE 11.0 mph 12.0 mph 86% 0.00 in 0.00 W/m2
18:24 11.3 °F 7.9 °F 30.34 in NE 8.0 mph 14.0 mph 86% 0.00 in 0.00 W/m2
18:29 11.3 °F 8.2 °F 30.34 in NNE 7.0 mph 14.0 mph 87% 0.00 in 0.00 W/m2
18:34 11.3 °F 8.2 °F 30.34 in NNE 11.0 mph 12.0 mph 87% 0.00 in 0.00 W/m2
18:39 11.4 °F 8.3 °F 30.34 in North 10.0 mph 13.0 mph 87% 0.00 in 0.00 W/m2
18:44 11.4 °F 8.3 °F 30.34 in NNE 11.0 mph 14.0 mph 87% 0.00 in 0.00 W/m2
18:49 11.4 °F 8.3 °F 30.34 in NNE 9.0 mph 14.0 mph 87% 0.00 in 0.00 W/m2
18:54 11.4 °F 8.3 °F 30.34 in NNE 7.0 mph 15.0 mph 87% 0.00 in 0.00 W/m2
18:59 11.3 °F 8.2 °F 30.34 in NNE 7.0 mph 15.0 mph 87% 0.00 in 0.00 W/m2
19:04 11.4 °F 8.5 °F 30.35 in NE 6.0 mph 12.0 mph 88% 0.00 in 0.00 W/m2
19:09 11.4 °F 8.3 °F 30.34 in NE 6.0 mph 11.0 mph 87% 0.00 in 0.00 W/m2
19:14 11.4 °F 8.3 °F 30.34 in NE 5.0 mph 10.0 mph 87% 0.00 in 0.00 W/m2
19:19 11.4 °F 8.3 °F 30.35 in NNE 7.0 mph 10.0 mph 87% 0.00 in 0.00 W/m2
19:24 11.5 °F 8.6 °F 30.35 in North 8.0 mph 11.0 mph 88% 0.00 in 0.00 W/m2
19:29 11.5 °F 8.6 °F 30.35 in NNE 8.0 mph 12.0 mph 88% 0.00 in 0.00 W/m2
19:34 11.5 °F 8.4 °F 30.35 in NNE 5.0 mph 13.0 mph 87% 0.00 in 0.00 W/m2
19:39 11.5 °F 8.4 °F 30.36 in NNE 5.0 mph 13.0 mph 87% 0.00 in 0.00 W/m2
19:44 11.4 °F 8.5 °F 30.36 in NNE 5.0 mph 13.0 mph 88% 0.00 in 0.00 W/m2
19:49 11.5 °F 8.6 °F 30.36 in NE 6.0 mph 9.0 mph 88% 0.00 in 0.00 W/m2
19:54 11.6 °F 8.7 °F 30.36 in NE 5.0 mph 9.0 mph 88% 0.00 in 0.00 W/m2
19:59 11.6 °F 8.7 °F 30.36 in NE 3.0 mph 8.0 mph 88% 0.00 in 0.00 W/m2
20:04 11.6 °F 8.7 °F 30.36 in NE 6.0 mph 7.0 mph 88% 0.00 in 0.00 W/m2
20:09 11.6 °F 8.7 °F 30.36 in NE 6.0 mph 7.0 mph 88% 0.00 in 0.00 W/m2
20:14 11.6 °F 8.5 °F 30.37 in North 5.0 mph 7.0 mph 87% 0.00 in 0.00 W/m2
20:19 11.6 °F 8.7 °F 30.37 in North 5.0 mph 8.0 mph 88% 0.00 in 0.00 W/m2
20:24 11.6 °F 8.7 °F 30.37 in NNE 7.0 mph 10.0 mph 88% 0.00 in 0.00 W/m2
20:29 11.6 °F 8.7 °F 30.37 in NNE 4.0 mph 10.0 mph 88% 0.00 in 0.00 W/m2
20:34 11.6 °F 8.7 °F 30.37 in North 7.0 mph 9.0 mph 88% 0.00 in 0.00 W/m2
20:39 11.5 °F 8.6 °F 30.38 in North 6.0 mph 8.0 mph 88% 0.00 in 0.00 W/m2
20:44 11.5 °F 8.6 °F 30.38 in North 6.0 mph 8.0 mph 88% 0.00 in 0.00 W/m2
20:49 11.5 °F 8.6 °F 30.38 in NNE 6.0 mph 8.0 mph 88% 0.00 in 0.00 W/m2
20:54 11.5 °F 8.9 °F 30.38 in North 7.0 mph 8.0 mph 89% 0.00 in 0.00 W/m2
20:59 11.4 °F 8.8 °F 30.38 in North 4.0 mph 8.0 mph 89% 0.00 in 0.00 W/m2
21:04 11.4 °F 8.8 °F 30.38 in NNW 6.0 mph 8.0 mph 89% 0.00 in 0.00 W/m2
21:09 11.3 °F 8.7 °F 30.38 in North 8.0 mph 10.0 mph 89% 0.00 in 0.00 W/m2
21:14 11.3 °F 8.7 °F 30.39 in North 5.0 mph 10.0 mph 89% 0.00 in 0.00 W/m2
21:19 11.2 °F 8.6 °F 30.39 in North 5.0 mph 9.0 mph 89% 0.00 in 0.00 W/m2
21:24 11.2 °F 8.6 °F 30.39 in NNE 5.0 mph 9.0 mph 89% 0.00 in 0.00 W/m2
21:29 11.2 °F 8.6 °F 30.39 in North 5.0 mph 7.0 mph 89% 0.00 in 0.00 W/m2
21:34 11.2 °F 8.6 °F 30.39 in North 3.0 mph 6.0 mph 89% 0.00 in 0.00 W/m2
21:39 11.2 °F 8.6 °F 30.39 in NNE 4.0 mph 6.0 mph 89% 0.00 in 0.00 W/m2
21:44 11.2 °F 8.6 °F 30.39 in North 5.0 mph 6.0 mph 89% 0.00 in 0.00 W/m2
21:49 11.2 °F 8.6 °F 30.39 in NNW 4.0 mph 5.0 mph 89% 0.00 in 0.00 W/m2
21:54 11.2 °F 8.6 °F 30.39 in NNE 6.0 mph 8.0 mph 89% 0.00 in 0.00 W/m2
21:59 11.2 °F 8.6 °F 30.39 in North 5.0 mph 8.0 mph 89% 0.00 in 0.00 W/m2
22:04 11.2 °F 8.6 °F 30.39 in North 6.0 mph 7.0 mph 89% 0.00 in 0.00 W/m2
22:09 11.2 °F 8.6 °F 30.39 in NNW 6.0 mph 8.0 mph 89% 0.00 in 0.00 W/m2
22:14 11.2 °F 8.6 °F 30.39 in North 5.0 mph 8.0 mph 89% 0.00 in 0.00 W/m2
22:19 11.2 °F 8.6 °F 30.40 in North 3.0 mph 7.0 mph 89% 0.00 in 0.00 W/m2
22:24 11.2 °F 8.8 °F 30.40 in North 6.0 mph 8.0 mph 90% 0.00 in 0.00 W/m2
22:29 11.2 °F 8.8 °F 30.40 in NNW 6.0 mph 8.0 mph 90% 0.00 in 0.00 W/m2
22:34 11.2 °F 8.8 °F 30.40 in North 5.0 mph 7.0 mph 90% 0.00 in 0.00 W/m2
22:39 11.2 °F 8.8 °F 30.39 in North 8.0 mph 9.0 mph 90% 0.00 in 0.00 W/m2
22:44 11.3 °F 8.9 °F 30.40 in NNE 4.0 mph 9.0 mph 90% 0.00 in 0.00 W/m2
22:49 11.3 °F 8.9 °F 30.40 in North 6.0 mph 8.0 mph 90% 0.00 in 0.00 W/m2
22:54 11.3 °F 8.9 °F 30.40 in North 5.0 mph 8.0 mph 90% 0.00 in 0.00 W/m2
22:59 11.3 °F 8.9 °F 30.40 in North 7.0 mph 8.0 mph 90% 0.00 in 0.00 W/m2
23:04 11.3 °F 8.9 °F 30.40 in NNW 5.0 mph 8.0 mph 90% 0.00 in 0.00 W/m2
23:09 11.3 °F 8.9 °F 30.40 in North 4.0 mph 7.0 mph 90% 0.00 in 0.00 W/m2
23:14 11.3 °F 8.9 °F 30.40 in NNE 5.0 mph 9.0 mph 90% 0.00 in 0.00 W/m2
23:19 11.3 °F 8.9 °F 30.40 in North 7.0 mph 9.0 mph 90% 0.00 in 0.00 W/m2
23:24 11.3 °F 8.9 °F 30.40 in North 6.0 mph 9.0 mph 90% 0.00 in 0.00 W/m2
23:29 11.3 °F 8.9 °F 30.40 in North 5.0 mph 8.0 mph 90% 0.00 in 0.00 W/m2
23:34 11.3 °F 8.9 °F 30.40 in North 7.0 mph 9.0 mph 90% 0.00 in 0.00 W/m2
23:39 11.4 °F 9.0 °F 30.40 in North 7.0 mph 9.0 mph 90% 0.00 in 0.00 W/m2
23:44 11.4 °F 9.0 °F 30.40 in North 5.0 mph 8.0 mph 90% 0.00 in 0.00 W/m2
23:49 11.4 °F 9.0 °F 30.40 in North 7.0 mph 9.0 mph 90% 0.00 in 0.00 W/m2
23:54 11.4 °F 9.0 °F 30.40 in North 5.0 mph 9.0 mph 90% 0.00 in 0.00 W/m2
23:59 11.4 °F 9.0 °F 30.40 in North 6.0 mph 9.0 mph 90% 0.00 in 0.00 W/m2
Bismarck, North Dakota, USA
Compliments of Weather Underground - 4 mb